sensor_id;sensor_type;location;lat;lon;timestamp;P1;durP1;ratioP1;P2;durP2;ratioP2
20241;SDS011;10279;46.388;8.116;2022-07-30T00:00:31;1.48;;;1.15;;
20241;SDS011;10279;46.388;8.116;2022-07-30T00:02:59;1.13;;;1.00;;
20241;SDS011;10279;46.388;8.116;2022-07-30T00:05:26;1.33;;;1.20;;
20241;SDS011;10279;46.388;8.116;2022-07-30T00:07:54;1.20;;;1.10;;
20241;SDS011;10279;46.388;8.116;2022-07-30T00:10:21;1.15;;;1.10;;
20241;SDS011;10279;46.388;8.116;2022-07-30T00:12:49;1.95;;;1.10;;
20241;SDS011;10279;46.388;8.116;2022-07-30T00:15:17;2.05;;;1.15;;
20241;SDS011;10279;46.388;8.116;2022-07-30T00:17:44;1.63;;;1.40;;
20241;SDS011;10279;46.388;8.116;2022-07-30T00:20:14;1.20;;;1.10;;
20241;SDS011;10279;46.388;8.116;2022-07-30T00:22:43;1.23;;;1.10;;
20241;SDS011;10279;46.388;8.116;2022-07-30T00:25:11;2.70;;;1.20;;
20241;SDS011;10279;46.388;8.116;2022-07-30T00:27:38;1.55;;;1.05;;
20241;SDS011;10279;46.388;8.116;2022-07-30T00:30:06;1.30;;;1.20;;
20241;SDS011;10279;46.388;8.116;2022-07-30T00:32:34;4.18;;;1.45;;
20241;SDS011;10279;46.388;8.116;2022-07-30T00:35:01;2.42;;;1.23;;
20241;SDS011;10279;46.388;8.116;2022-07-30T00:37:29;1.40;;;1.30;;
20241;SDS011;10279;46.388;8.116;2022-07-30T00:39:56;2.90;;;1.30;;
20241;SDS011;10279;46.388;8.116;2022-07-30T00:42:25;1.50;;;1.40;;
20241;SDS011;10279;46.388;8.116;2022-07-30T00:45:02;1.45;;;1.20;;
20241;SDS011;10279;46.388;8.116;2022-07-30T00:47:30;1.48;;;1.30;;
20241;SDS011;10279;46.388;8.116;2022-07-30T00:49:57;2.28;;;1.40;;
20241;SDS011;10279;46.388;8.116;2022-07-30T00:52:25;1.15;;;1.05;;
20241;SDS011;10279;46.388;8.116;2022-07-30T00:54:52;2.25;;;1.27;;
20241;SDS011;10279;46.388;8.116;2022-07-30T00:57:20;1.40;;;1.30;;
20241;SDS011;10279;46.388;8.116;2022-07-30T00:59:48;1.50;;;1.20;;
20241;SDS011;10279;46.388;8.116;2022-07-30T01:02:15;1.58;;;1.25;;
20241;SDS011;10279;46.388;8.116;2022-07-30T01:04:43;1.67;;;1.27;;
20241;SDS011;10279;46.388;8.116;2022-07-30T01:07:10;1.40;;;1.30;;
20241;SDS011;10279;46.388;8.116;2022-07-30T01:09:40;1.30;;;1.20;;
20241;SDS011;10279;46.388;8.116;2022-07-30T01:12:18;1.17;;;1.08;;
20241;SDS011;10279;46.388;8.116;2022-07-30T01:14:47;1.63;;;1.30;;
20241;SDS011;10279;46.388;8.116;2022-07-30T01:17:14;1.63;;;1.23;;
20241;SDS011;10279;46.388;8.116;2022-07-30T01:19:42;1.40;;;1.30;;
20241;SDS011;10279;46.388;8.116;2022-07-30T01:27:30;2.22;;;1.33;;
20241;SDS011;10279;46.388;8.116;2022-07-30T01:30:00;2.75;;;1.60;;
20241;SDS011;10279;46.388;8.116;2022-07-30T01:32:27;1.30;;;1.17;;
20241;SDS011;10279;46.388;8.116;2022-07-30T01:34:57;1.75;;;1.48;;
20241;SDS011;10279;46.388;8.116;2022-07-30T01:37:25;2.13;;;1.13;;
20241;SDS011;10279;46.388;8.116;2022-07-30T01:39:53;1.55;;;1.42;;
20241;SDS011;10279;46.388;8.116;2022-07-30T01:42:22;1.25;;;1.15;;
20241;SDS011;10279;46.388;8.116;2022-07-30T01:44:50;1.40;;;1.30;;
20241;SDS011;10279;46.388;8.116;2022-07-30T01:47:17;2.05;;;1.30;;
20241;SDS011;10279;46.388;8.116;2022-07-30T01:49:46;2.42;;;1.38;;
20241;SDS011;10279;46.388;8.116;2022-07-30T01:52:15;1.23;;;1.13;;
20241;SDS011;10279;46.388;8.116;2022-07-30T01:54:44;1.58;;;1.48;;
20241;SDS011;10279;46.388;8.116;2022-07-30T01:57:12;2.53;;;1.30;;
20241;SDS011;10279;46.388;8.116;2022-07-30T01:59:40;2.15;;;1.25;;
20241;SDS011;10279;46.388;8.116;2022-07-30T02:02:09;1.48;;;1.38;;
20241;SDS011;10279;46.388;8.116;2022-07-30T02:04:43;1.40;;;1.30;;
20241;SDS011;10279;46.388;8.116;2022-07-30T02:07:14;2.83;;;1.50;;
20241;SDS011;10279;46.388;8.116;2022-07-30T02:09:54;2.90;;;1.67;;
20241;SDS011;10279;46.388;8.116;2022-07-30T02:12:24;1.70;;;1.60;;
20241;SDS011;10279;46.388;8.116;2022-07-30T02:17:23;2.58;;;1.38;;
20241;SDS011;10279;46.388;8.116;2022-07-30T02:20:05;1.60;;;1.40;;
20241;SDS011;10279;46.388;8.116;2022-07-30T02:22:35;2.10;;;1.70;;
20241;SDS011;10279;46.388;8.116;2022-07-30T02:25:04;1.98;;;1.50;;
20241;SDS011;10279;46.388;8.116;2022-07-30T02:27:33;1.85;;;1.40;;
20241;SDS011;10279;46.388;8.116;2022-07-30T02:30:04;2.17;;;1.33;;
20241;SDS011;10279;46.388;8.116;2022-07-30T02:32:35;1.88;;;1.45;;
20241;SDS011;10279;46.388;8.116;2022-07-30T02:35:06;1.85;;;1.75;;
20241;SDS011;10279;46.388;8.116;2022-07-30T02:37:36;1.55;;;1.45;;
20241;SDS011;10279;46.388;8.116;2022-07-30T02:40:10;1.90;;;1.45;;
20241;SDS011;10279;46.388;8.116;2022-07-30T02:42:40;1.70;;;1.60;;
20241;SDS011;10279;46.388;8.116;2022-07-30T02:45:08;2.40;;;1.60;;
20241;SDS011;10279;46.388;8.116;2022-07-30T02:47:36;1.85;;;1.38;;
20241;SDS011;10279;46.388;8.116;2022-07-30T02:50:05;1.60;;;1.50;;
20241;SDS011;10279;46.388;8.116;2022-07-30T02:52:33;2.13;;;1.60;;
20241;SDS011;10279;46.388;8.116;2022-07-30T02:55:01;1.98;;;1.88;;
20241;SDS011;10279;46.388;8.116;2022-07-30T02:57:29;1.98;;;1.42;;
20241;SDS011;10279;46.388;8.116;2022-07-30T02:59:57;1.70;;;1.60;;
20241;SDS011;10279;46.388;8.116;2022-07-30T03:02:25;2.63;;;1.60;;
20241;SDS011;10279;46.388;8.116;2022-07-30T03:04:55;3.03;;;1.58;;
20241;SDS011;10279;46.388;8.116;2022-07-30T03:07:23;1.75;;;1.65;;
20241;SDS011;10279;46.388;8.116;2022-07-30T03:09:51;1.88;;;1.48;;
20241;SDS011;10279;46.388;8.116;2022-07-30T03:12:21;3.28;;;1.45;;
20241;SDS011;10279;46.388;8.116;2022-07-30T03:14:49;3.90;;;1.48;;
20241;SDS011;10279;46.388;8.116;2022-07-30T03:17:17;2.38;;;2.10;;
20241;SDS011;10279;46.388;8.116;2022-07-30T03:19:45;1.70;;;1.60;;
20241;SDS011;10279;46.388;8.116;2022-07-30T03:22:15;1.60;;;1.50;;
20241;SDS011;10279;46.388;8.116;2022-07-30T03:24:44;5.07;;;1.73;;
20241;SDS011;10279;46.388;8.116;2022-07-30T03:27:12;1.50;;;1.40;;
20241;SDS011;10279;46.388;8.116;2022-07-30T03:29:40;1.45;;;1.35;;
20241;SDS011;10279;46.388;8.116;2022-07-30T03:32:08;1.60;;;1.40;;
20241;SDS011;10279;46.388;8.116;2022-07-30T03:34:39;1.60;;;1.50;;
20241;SDS011;10279;46.388;8.116;2022-07-30T03:37:09;3.90;;;1.58;;
20241;SDS011;10279;46.388;8.116;2022-07-30T03:39:36;2.00;;;1.80;;
20241;SDS011;10279;46.388;8.116;2022-07-30T03:42:05;3.25;;;1.60;;
20241;SDS011;10279;46.388;8.116;2022-07-30T03:44:33;1.73;;;1.63;;
20241;SDS011;10279;46.388;8.116;2022-07-30T03:47:01;1.98;;;1.40;;
20241;SDS011;10279;46.388;8.116;2022-07-30T03:49:29;3.33;;;1.90;;
20241;SDS011;10279;46.388;8.116;2022-07-30T03:51:58;3.47;;;1.50;;
20241;SDS011;10279;46.388;8.116;2022-07-30T03:54:25;1.52;;;1.38;;
20241;SDS011;10279;46.388;8.116;2022-07-30T03:56:53;3.08;;;1.60;;
20241;SDS011;10279;46.388;8.116;2022-07-30T03:59:20;2.00;;;1.80;;
20241;SDS011;10279;46.388;8.116;2022-07-30T04:01:48;3.00;;;1.65;;
20241;SDS011;10279;46.388;8.116;2022-07-30T04:04:16;1.60;;;1.50;;
20241;SDS011;10279;46.388;8.116;2022-07-30T04:06:43;2.63;;;1.70;;
20241;SDS011;10279;46.388;8.116;2022-07-30T04:09:14;1.60;;;1.50;;
20241;SDS011;10279;46.388;8.116;2022-07-30T04:11:41;2.75;;;1.40;;
20241;SDS011;10279;46.388;8.116;2022-07-30T04:14:09;1.80;;;1.70;;
20241;SDS011;10279;46.388;8.116;2022-07-30T04:16:39;2.08;;;1.83;;
20241;SDS011;10279;46.388;8.116;2022-07-30T04:19:25;1.70;;;1.60;;
20241;SDS011;10279;46.388;8.116;2022-07-30T04:21:54;3.00;;;1.73;;
20241;SDS011;10279;46.388;8.116;2022-07-30T04:24:23;2.97;;;1.52;;
20241;SDS011;10279;46.388;8.116;2022-07-30T04:26:51;2.45;;;1.88;;
20241;SDS011;10279;46.388;8.116;2022-07-30T04:29:18;4.25;;;1.50;;
20241;SDS011;10279;46.388;8.116;2022-07-30T04:31:50;2.53;;;1.63;;
20241;SDS011;10279;46.388;8.116;2022-07-30T04:34:18;3.15;;;1.63;;
20241;SDS011;10279;46.388;8.116;2022-07-30T04:36:49;1.52;;;1.40;;
20241;SDS011;10279;46.388;8.116;2022-07-30T04:39:17;2.13;;;1.75;;
20241;SDS011;10279;46.388;8.116;2022-07-30T04:41:47;3.08;;;1.70;;
20241;SDS011;10279;46.388;8.116;2022-07-30T04:44:18;2.03;;;1.90;;
20241;SDS011;10279;46.388;8.116;2022-07-30T04:46:46;2.17;;;1.90;;
20241;SDS011;10279;46.388;8.116;2022-07-30T04:49:14;2.33;;;1.52;;
20241;SDS011;10279;46.388;8.116;2022-07-30T04:51:42;1.73;;;1.63;;
20241;SDS011;10279;46.388;8.116;2022-07-30T04:54:12;1.77;;;1.67;;
20241;SDS011;10279;46.388;8.116;2022-07-30T04:56:42;1.73;;;1.60;;
20241;SDS011;10279;46.388;8.116;2022-07-30T04:59:26;2.00;;;1.30;;
20241;SDS011;10279;46.388;8.116;2022-07-30T05:01:55;3.17;;;1.73;;
20241;SDS011;10279;46.388;8.116;2022-07-30T05:04:23;2.97;;;1.60;;
20241;SDS011;10279;46.388;8.116;2022-07-30T05:06:51;2.72;;;1.88;;
20241;SDS011;10279;46.388;8.116;2022-07-30T05:09:19;1.95;;;1.65;;
20241;SDS011;10279;46.388;8.116;2022-07-30T05:11:50;2.40;;;1.90;;
20241;SDS011;10279;46.388;8.116;2022-07-30T05:14:18;3.03;;;1.40;;
20241;SDS011;10279;46.388;8.116;2022-07-30T05:16:46;2.50;;;1.90;;
20241;SDS011;10279;46.388;8.116;2022-07-30T05:19:14;1.90;;;1.70;;
20241;SDS011;10279;46.388;8.116;2022-07-30T05:21:41;1.73;;;1.63;;
20241;SDS011;10279;46.388;8.116;2022-07-30T05:24:12;2.65;;;1.50;;
20241;SDS011;10279;46.388;8.116;2022-07-30T05:26:40;2.53;;;1.60;;
20241;SDS011;10279;46.388;8.116;2022-07-30T05:29:07;1.90;;;1.70;;
20241;SDS011;10279;46.388;8.116;2022-07-30T05:31:45;5.43;;;1.40;;
20241;SDS011;10279;46.388;8.116;2022-07-30T05:34:12;1.70;;;1.60;;
20241;SDS011;10279;46.388;8.116;2022-07-30T05:36:40;2.45;;;1.70;;
20241;SDS011;10279;46.388;8.116;2022-07-30T05:39:09;1.58;;;1.40;;
20241;SDS011;10279;46.388;8.116;2022-07-30T05:41:37;1.67;;;1.50;;
20241;SDS011;10279;46.388;8.116;2022-07-30T05:44:05;2.40;;;1.60;;
20241;SDS011;10279;46.388;8.116;2022-07-30T05:46:32;2.65;;;1.50;;
20241;SDS011;10279;46.388;8.116;2022-07-30T05:49:00;1.42;;;1.33;;
20241;SDS011;10279;46.388;8.116;2022-07-30T05:51:27;4.63;;;1.90;;
20241;SDS011;10279;46.388;8.116;2022-07-30T05:53:54;2.25;;;1.98;;
20241;SDS011;10279;46.388;8.116;2022-07-30T05:56:22;1.98;;;1.60;;
20241;SDS011;10279;46.388;8.116;2022-07-30T05:58:49;3.03;;;1.98;;
20241;SDS011;10279;46.388;8.116;2022-07-30T06:01:17;3.13;;;2.03;;
20241;SDS011;10279;46.388;8.116;2022-07-30T06:03:44;2.33;;;2.13;;
20241;SDS011;10279;46.388;8.116;2022-07-30T06:06:12;3.00;;;1.83;;
20241;SDS011;10279;46.388;8.116;2022-07-30T06:08:39;2.42;;;1.77;;
20241;SDS011;10279;46.388;8.116;2022-07-30T06:11:07;1.85;;;1.75;;
20241;SDS011;10279;46.388;8.116;2022-07-30T06:13:34;2.38;;;2.05;;
20241;SDS011;10279;46.388;8.116;2022-07-30T06:16:02;3.55;;;1.90;;
20241;SDS011;10279;46.388;8.116;2022-07-30T06:18:29;2.72;;;2.17;;
20241;SDS011;10279;46.388;8.116;2022-07-30T06:20:57;2.38;;;2.08;;
20241;SDS011;10279;46.388;8.116;2022-07-30T06:23:24;1.98;;;1.77;;
20241;SDS011;10279;46.388;8.116;2022-07-30T06:25:51;1.80;;;1.70;;
20241;SDS011;10279;46.388;8.116;2022-07-30T06:28:19;4.32;;;1.90;;
20241;SDS011;10279;46.388;8.116;2022-07-30T06:31:03;3.17;;;2.30;;
20241;SDS011;10279;46.388;8.116;2022-07-30T06:33:30;3.03;;;2.80;;
20241;SDS011;10279;46.388;8.116;2022-07-30T06:35:58;2.42;;;2.22;;
20241;SDS011;10279;46.388;8.116;2022-07-30T06:38:25;2.70;;;2.50;;
20241;SDS011;10279;46.388;8.116;2022-07-30T06:40:52;4.75;;;2.65;;
20241;SDS011;10279;46.388;8.116;2022-07-30T06:43:25;2.97;;;2.70;;
20241;SDS011;10279;46.388;8.116;2022-07-30T06:45:53;3.20;;;2.90;;
20241;SDS011;10279;46.388;8.116;2022-07-30T06:48:21;2.78;;;2.58;;
20241;SDS011;10279;46.388;8.116;2022-07-30T06:50:48;2.92;;;2.60;;
20241;SDS011;10279;46.388;8.116;2022-07-30T06:53:15;2.63;;;2.42;;
20241;SDS011;10279;46.388;8.116;2022-07-30T06:55:43;2.92;;;2.65;;
20241;SDS011;10279;46.388;8.116;2022-07-30T06:58:10;3.33;;;2.65;;
20241;SDS011;10279;46.388;8.116;2022-07-30T07:00:38;2.78;;;2.58;;
20241;SDS011;10279;46.388;8.116;2022-07-30T07:03:06;4.03;;;2.53;;
20241;SDS011;10279;46.388;8.116;2022-07-30T07:05:37;2.80;;;2.60;;
20241;SDS011;10279;46.388;8.116;2022-07-30T07:08:04;3.47;;;2.55;;
20241;SDS011;10279;46.388;8.116;2022-07-30T07:10:32;4.28;;;2.60;;
20241;SDS011;10279;46.388;8.116;2022-07-30T07:12:59;5.18;;;3.22;;
20241;SDS011;10279;46.388;8.116;2022-07-30T07:15:26;3.63;;;2.80;;
20241;SDS011;10279;46.388;8.116;2022-07-30T07:18:03;3.58;;;2.33;;
20241;SDS011;10279;46.388;8.116;2022-07-30T07:20:31;3.67;;;2.78;;
20241;SDS011;10279;46.388;8.116;2022-07-30T07:22:59;3.45;;;2.60;;
20241;SDS011;10279;46.388;8.116;2022-07-30T07:25:34;2.40;;;2.20;;
20241;SDS011;10279;46.388;8.116;2022-07-30T07:28:02;3.20;;;2.70;;
20241;SDS011;10279;46.388;8.116;2022-07-30T07:30:38;2.60;;;2.40;;
20241;SDS011;10279;46.388;8.116;2022-07-30T07:33:06;4.72;;;2.80;;
20241;SDS011;10279;46.388;8.116;2022-07-30T07:35:34;2.60;;;2.40;;
20241;SDS011;10279;46.388;8.116;2022-07-30T07:38:15;2.45;;;2.28;;
20241;SDS011;10279;46.388;8.116;2022-07-30T07:40:43;3.58;;;2.53;;
20241;SDS011;10279;46.388;8.116;2022-07-30T07:43:10;3.30;;;2.83;;
20241;SDS011;10279;46.388;8.116;2022-07-30T07:45:39;3.83;;;2.45;;
20241;SDS011;10279;46.388;8.116;2022-07-30T07:48:06;2.67;;;2.47;;
20241;SDS011;10279;46.388;8.116;2022-07-30T07:50:34;3.97;;;2.78;;
20241;SDS011;10279;46.388;8.116;2022-07-30T07:53:01;2.83;;;2.28;;
20241;SDS011;10279;46.388;8.116;2022-07-30T07:55:29;5.63;;;2.50;;
20241;SDS011;10279;46.388;8.116;2022-07-30T07:57:58;3.25;;;2.70;;
20241;SDS011;10279;46.388;8.116;2022-07-30T08:00:26;3.03;;;2.70;;
20241;SDS011;10279;46.388;8.116;2022-07-30T08:02:54;3.30;;;2.97;;
20241;SDS011;10279;46.388;8.116;2022-07-30T08:05:21;3.33;;;2.78;;
20241;SDS011;10279;46.388;8.116;2022-07-30T08:07:49;3.13;;;2.28;;
20241;SDS011;10279;46.388;8.116;2022-07-30T08:10:16;4.55;;;2.97;;
20241;SDS011;10279;46.388;8.116;2022-07-30T08:12:44;2.55;;;2.35;;
20241;SDS011;10279;46.388;8.116;2022-07-30T08:15:11;3.88;;;2.70;;
20241;SDS011;10279;46.388;8.116;2022-07-30T08:17:42;5.13;;;2.60;;
20241;SDS011;10279;46.388;8.116;2022-07-30T08:20:10;2.75;;;2.50;;
20241;SDS011;10279;46.388;8.116;2022-07-30T08:22:38;9.32;;;2.63;;
20241;SDS011;10279;46.388;8.116;2022-07-30T08:25:06;3.88;;;2.53;;
20241;SDS011;10279;46.388;8.116;2022-07-30T08:27:34;2.65;;;2.45;;
20241;SDS011;10279;46.388;8.116;2022-07-30T08:30:03;3.05;;;2.22;;
20241;SDS011;10279;46.388;8.116;2022-07-30T08:32:30;2.60;;;2.30;;
20241;SDS011;10279;46.388;8.116;2022-07-30T08:34:58;2.42;;;2.22;;
20241;SDS011;10279;46.388;8.116;2022-07-30T08:37:26;2.65;;;2.45;;
20241;SDS011;10279;46.388;8.116;2022-07-30T08:39:53;8.32;;;2.70;;
20241;SDS011;10279;46.388;8.116;2022-07-30T08:42:21;3.55;;;2.47;;
20241;SDS011;10279;46.388;8.116;2022-07-30T08:44:49;3.92;;;2.13;;
20241;SDS011;10279;46.388;8.116;2022-07-30T08:47:19;3.75;;;2.47;;
20241;SDS011;10279;46.388;8.116;2022-07-30T08:49:52;12.48;;;3.85;;
20241;SDS011;10279;46.388;8.116;2022-07-30T08:52:21;2.67;;;2.40;;
20241;SDS011;10279;46.388;8.116;2022-07-30T08:54:48;2.13;;;1.92;;
20241;SDS011;10279;46.388;8.116;2022-07-30T08:57:16;15.30;;;5.05;;
20241;SDS011;10279;46.388;8.116;2022-07-30T08:59:43;6.65;;;3.50;;
20241;SDS011;10279;46.388;8.116;2022-07-30T09:02:26;3.92;;;2.55;;
20241;SDS011;10279;46.388;8.116;2022-07-30T09:04:56;10.40;;;4.40;;
20241;SDS011;10279;46.388;8.116;2022-07-30T09:07:23;8.52;;;3.40;;
20241;SDS011;10279;46.388;8.116;2022-07-30T09:09:54;2.10;;;1.85;;
20241;SDS011;10279;46.388;8.116;2022-07-30T09:12:42;4.03;;;2.30;;
20241;SDS011;10279;46.388;8.116;2022-07-30T09:15:16;3.45;;;2.38;;
20241;SDS011;10279;46.388;8.116;2022-07-30T09:17:46;2.63;;;2.42;;
20241;SDS011;10279;46.388;8.116;2022-07-30T09:20:13;4.15;;;3.00;;
20241;SDS011;10279;46.388;8.116;2022-07-30T09:22:42;4.30;;;2.33;;
20241;SDS011;10279;46.388;8.116;2022-07-30T09:25:10;2.35;;;2.15;;
20241;SDS011;10279;46.388;8.116;2022-07-30T09:27:44;1.90;;;1.80;;
20241;SDS011;10279;46.388;8.116;2022-07-30T09:30:12;4.78;;;2.50;;
20241;SDS011;10279;46.388;8.116;2022-07-30T09:32:47;3.38;;;1.92;;
20241;SDS011;10279;46.388;8.116;2022-07-30T09:35:15;2.03;;;1.92;;
20241;SDS011;10279;46.388;8.116;2022-07-30T09:37:43;1.80;;;1.70;;
20241;SDS011;10279;46.388;8.116;2022-07-30T09:40:15;4.28;;;1.83;;
20241;SDS011;10279;46.388;8.116;2022-07-30T09:42:43;2.97;;;2.40;;
20241;SDS011;10279;46.388;8.116;2022-07-30T09:45:11;2.05;;;1.70;;
20241;SDS011;10279;46.388;8.116;2022-07-30T09:47:40;2.33;;;1.77;;
20241;SDS011;10279;46.388;8.116;2022-07-30T09:50:10;3.97;;;1.80;;
20241;SDS011;10279;46.388;8.116;2022-07-30T09:52:38;3.20;;;1.83;;
20241;SDS011;10279;46.388;8.116;2022-07-30T09:55:09;2.85;;;1.90;;
20241;SDS011;10279;46.388;8.116;2022-07-30T09:57:53;2.72;;;2.00;;
20241;SDS011;10279;46.388;8.116;2022-07-30T10:00:24;3.15;;;1.90;;
20241;SDS011;10279;46.388;8.116;2022-07-30T10:02:52;1.95;;;1.70;;
20241;SDS011;10279;46.388;8.116;2022-07-30T10:05:20;2.17;;;1.85;;
20241;SDS011;10279;46.388;8.116;2022-07-30T10:07:52;3.35;;;1.55;;
20241;SDS011;10279;46.388;8.116;2022-07-30T10:10:26;2.63;;;1.80;;
20241;SDS011;10279;46.388;8.116;2022-07-30T10:12:57;2.03;;;1.77;;
20241;SDS011;10279;46.388;8.116;2022-07-30T10:15:30;3.70;;;1.50;;
20241;SDS011;10279;46.388;8.116;2022-07-30T10:18:00;2.72;;;1.80;;
20241;SDS011;10279;46.388;8.116;2022-07-30T10:20:32;1.70;;;1.60;;
20241;SDS011;10279;46.388;8.116;2022-07-30T10:23:01;1.77;;;1.65;;
20241;SDS011;10279;46.388;8.116;2022-07-30T10:25:34;2.47;;;1.60;;
20241;SDS011;10279;46.388;8.116;2022-07-30T10:28:01;1.77;;;1.50;;
20241;SDS011;10279;46.388;8.116;2022-07-30T10:30:30;1.73;;;1.63;;
20241;SDS011;10279;46.388;8.116;2022-07-30T10:32:57;3.25;;;1.60;;
20241;SDS011;10279;46.388;8.116;2022-07-30T10:35:28;1.75;;;1.50;;
20241;SDS011;10279;46.388;8.116;2022-07-30T10:38:05;1.80;;;1.40;;
20241;SDS011;10279;46.388;8.116;2022-07-30T10:40:39;1.48;;;1.38;;
20241;SDS011;10279;46.388;8.116;2022-07-30T10:48:11;1.48;;;1.38;;
20241;SDS011;10279;46.388;8.116;2022-07-30T10:59:03;1.30;;;1.20;;
20241;SDS011;10279;46.388;8.116;2022-07-30T11:06:51;1.67;;;1.10;;
20241;SDS011;10279;46.388;8.116;2022-07-30T11:12:06;2.40;;;1.10;;
20241;SDS011;10279;46.388;8.116;2022-07-30T11:17:17;1.38;;;0.90;;
20241;SDS011;10279;46.388;8.116;2022-07-30T11:22:38;3.60;;;1.08;;
20241;SDS011;10279;46.388;8.116;2022-07-30T11:31:02;0.80;;;0.80;;
20241;SDS011;10279;46.388;8.116;2022-07-30T11:33:35;1.30;;;1.20;;
20241;SDS011;10279;46.388;8.116;2022-07-30T11:36:05;2.63;;;1.00;;
20241;SDS011;10279;46.388;8.116;2022-07-30T11:41:38;2.30;;;1.08;;
20241;SDS011;10279;46.388;8.116;2022-07-30T11:47:12;2.55;;;1.08;;
20241;SDS011;10279;46.388;8.116;2022-07-30T11:49:39;1.85;;;1.10;;
20241;SDS011;10279;46.388;8.116;2022-07-30T11:52:07;1.33;;;1.00;;
20241;SDS011;10279;46.388;8.116;2022-07-30T11:54:49;2.33;;;1.15;;
20241;SDS011;10279;46.388;8.116;2022-07-30T11:57:17;1.92;;;1.10;;
20241;SDS011;10279;46.388;8.116;2022-07-30T11:59:53;1.25;;;1.10;;
20241;SDS011;10279;46.388;8.116;2022-07-30T12:02:27;1.48;;;1.13;;
20241;SDS011;10279;46.388;8.116;2022-07-30T12:04:54;1.27;;;0.90;;
20241;SDS011;10279;46.388;8.116;2022-07-30T12:07:22;1.75;;;1.00;;
20241;SDS011;10279;46.388;8.116;2022-07-30T12:09:49;1.05;;;0.95;;
20241;SDS011;10279;46.388;8.116;2022-07-30T12:12:23;0.70;;;0.70;;
20241;SDS011;10279;46.388;8.116;2022-07-30T12:14:51;1.15;;;1.02;;
20241;SDS011;10279;46.388;8.116;2022-07-30T12:17:18;1.02;;;1.00;;
20241;SDS011;10279;46.388;8.116;2022-07-30T12:19:48;2.72;;;0.85;;
20241;SDS011;10279;46.388;8.116;2022-07-30T12:22:16;0.93;;;0.90;;
20241;SDS011;10279;46.388;8.116;2022-07-30T12:24:45;1.48;;;0.90;;
20241;SDS011;10279;46.388;8.116;2022-07-30T12:27:12;1.73;;;1.02;;
20241;SDS011;10279;46.388;8.116;2022-07-30T12:29:39;1.00;;;0.88;;
20241;SDS011;10279;46.388;8.116;2022-07-30T12:32:07;1.13;;;1.00;;
20241;SDS011;10279;46.388;8.116;2022-07-30T12:34:34;2.25;;;1.10;;
20241;SDS011;10279;46.388;8.116;2022-07-30T12:37:05;0.93;;;0.70;;
20241;SDS011;10279;46.388;8.116;2022-07-30T12:39:33;1.60;;;0.90;;
20241;SDS011;10279;46.388;8.116;2022-07-30T12:42:01;1.45;;;0.70;;
20241;SDS011;10279;46.388;8.116;2022-07-30T12:44:39;2.03;;;0.95;;
20241;SDS011;10279;46.388;8.116;2022-07-30T12:47:26;1.92;;;1.10;;
20241;SDS011;10279;46.388;8.116;2022-07-30T12:49:55;0.82;;;0.77;;
20241;SDS011;10279;46.388;8.116;2022-07-30T12:55:07;1.10;;;0.95;;
20241;SDS011;10279;46.388;8.116;2022-07-30T13:03:20;0.98;;;0.90;;
20241;SDS011;10279;46.388;8.116;2022-07-30T13:05:48;1.63;;;1.10;;
20241;SDS011;10279;46.388;8.116;2022-07-30T13:08:20;1.08;;;0.80;;
20241;SDS011;10279;46.388;8.116;2022-07-30T13:11:07;1.20;;;1.10;;
20241;SDS011;10279;46.388;8.116;2022-07-30T13:13:35;0.88;;;0.82;;
20241;SDS011;10279;46.388;8.116;2022-07-30T13:16:03;1.65;;;1.10;;
20241;SDS011;10279;46.388;8.116;2022-07-30T13:18:31;1.98;;;1.00;;
20241;SDS011;10279;46.388;8.116;2022-07-30T13:20:59;2.40;;;0.68;;
20241;SDS011;10279;46.388;8.116;2022-07-30T13:23:27;1.75;;;0.85;;
20241;SDS011;10279;46.388;8.116;2022-07-30T13:25:55;0.88;;;0.85;;
20241;SDS011;10279;46.388;8.116;2022-07-30T13:28:23;1.25;;;1.05;;
20241;SDS011;10279;46.388;8.116;2022-07-30T13:30:51;1.05;;;0.80;;
20241;SDS011;10279;46.388;8.116;2022-07-30T13:33:18;0.70;;;0.70;;
20241;SDS011;10279;46.388;8.116;2022-07-30T13:35:46;2.05;;;1.00;;
20241;SDS011;10279;46.388;8.116;2022-07-30T13:38:13;2.38;;;0.98;;
20241;SDS011;10279;46.388;8.116;2022-07-30T13:40:41;1.92;;;0.88;;
20241;SDS011;10279;46.388;8.116;2022-07-30T13:43:08;3.33;;;0.90;;
20241;SDS011;10279;46.388;8.116;2022-07-30T13:45:36;3.55;;;1.00;;
20241;SDS011;10279;46.388;8.116;2022-07-30T13:48:03;2.28;;;1.27;;
20241;SDS011;10279;46.388;8.116;2022-07-30T13:50:31;0.80;;;0.80;;
20241;SDS011;10279;46.388;8.116;2022-07-30T13:52:59;3.88;;;0.93;;
20241;SDS011;10279;46.388;8.116;2022-07-30T13:55:27;1.13;;;0.90;;
20241;SDS011;10279;46.388;8.116;2022-07-30T13:57:55;1.10;;;0.70;;
20241;SDS011;10279;46.388;8.116;2022-07-30T14:00:22;3.60;;;0.73;;
20241;SDS011;10279;46.388;8.116;2022-07-30T14:02:50;3.72;;;1.00;;
20241;SDS011;10279;46.388;8.116;2022-07-30T14:05:18;4.95;;;1.13;;
20241;SDS011;10279;46.388;8.116;2022-07-30T14:07:45;2.45;;;1.08;;
20241;SDS011;10279;46.388;8.116;2022-07-30T14:10:12;2.03;;;0.90;;
20241;SDS011;10279;46.388;8.116;2022-07-30T14:12:41;2.92;;;0.90;;
20241;SDS011;10279;46.388;8.116;2022-07-30T14:15:08;1.35;;;1.10;;
20241;SDS011;10279;46.388;8.116;2022-07-30T14:17:41;0.80;;;0.70;;
20241;SDS011;10279;46.388;8.116;2022-07-30T14:20:21;3.00;;;0.90;;
20241;SDS011;10279;46.388;8.116;2022-07-30T14:22:49;0.95;;;0.65;;
20241;SDS011;10279;46.388;8.116;2022-07-30T14:25:16;1.23;;;0.70;;
20241;SDS011;10279;46.388;8.116;2022-07-30T14:27:44;2.70;;;1.02;;
20241;SDS011;10279;46.388;8.116;2022-07-30T14:30:13;1.17;;;0.82;;
20241;SDS011;10279;46.388;8.116;2022-07-30T14:32:40;1.65;;;1.00;;
20241;SDS011;10279;46.388;8.116;2022-07-30T14:35:08;0.68;;;0.68;;
20241;SDS011;10279;46.388;8.116;2022-07-30T14:37:39;0.88;;;0.80;;
20241;SDS011;10279;46.388;8.116;2022-07-30T14:40:07;1.20;;;0.93;;
20241;SDS011;10279;46.388;8.116;2022-07-30T14:42:37;0.98;;;0.90;;
20241;SDS011;10279;46.388;8.116;2022-07-30T14:45:06;0.90;;;0.90;;
20241;SDS011;10279;46.388;8.116;2022-07-30T14:47:36;2.00;;;0.60;;
20241;SDS011;10279;46.388;8.116;2022-07-30T14:50:06;0.85;;;0.80;;
20241;SDS011;10279;46.388;8.116;2022-07-30T14:52:35;0.98;;;0.80;;
20241;SDS011;10279;46.388;8.116;2022-07-30T14:55:07;2.67;;;0.80;;
20241;SDS011;10279;46.388;8.116;2022-07-30T14:57:35;0.90;;;0.73;;
20241;SDS011;10279;46.388;8.116;2022-07-30T15:00:03;2.08;;;0.80;;
20241;SDS011;10279;46.388;8.116;2022-07-30T15:02:33;1.42;;;1.00;;
20241;SDS011;10279;46.388;8.116;2022-07-30T15:05:00;0.70;;;0.70;;
20241;SDS011;10279;46.388;8.116;2022-07-30T15:07:28;2.28;;;1.00;;
20241;SDS011;10279;46.388;8.116;2022-07-30T15:10:00;1.67;;;1.20;;
20241;SDS011;10279;46.388;8.116;2022-07-30T15:12:28;1.50;;;0.85;;
20241;SDS011;10279;46.388;8.116;2022-07-30T15:14:55;1.20;;;0.85;;
20241;SDS011;10279;46.388;8.116;2022-07-30T15:17:22;1.55;;;0.98;;
20241;SDS011;10279;46.388;8.116;2022-07-30T15:19:50;1.42;;;1.10;;
20241;SDS011;10279;46.388;8.116;2022-07-30T15:22:18;0.98;;;0.90;;
20241;SDS011;10279;46.388;8.116;2022-07-30T15:24:46;0.80;;;0.80;;
20241;SDS011;10279;46.388;8.116;2022-07-30T15:27:14;2.05;;;1.00;;
20241;SDS011;10279;46.388;8.116;2022-07-30T15:29:41;0.75;;;0.70;;
20241;SDS011;10279;46.388;8.116;2022-07-30T15:32:09;1.02;;;0.80;;
20241;SDS011;10279;46.388;8.116;2022-07-30T15:34:37;1.00;;;0.80;;
20241;SDS011;10279;46.388;8.116;2022-07-30T15:37:04;1.13;;;0.80;;
20241;SDS011;10279;46.388;8.116;2022-07-30T15:39:32;1.60;;;0.95;;
20241;SDS011;10279;46.388;8.116;2022-07-30T15:42:03;1.65;;;0.88;;
20241;SDS011;10279;46.388;8.116;2022-07-30T15:44:31;2.03;;;0.93;;
20241;SDS011;10279;46.388;8.116;2022-07-30T15:46:59;1.30;;;1.05;;
20241;SDS011;10279;46.388;8.116;2022-07-30T15:49:27;2.10;;;0.90;;
20241;SDS011;10279;46.388;8.116;2022-07-30T15:51:54;1.30;;;0.80;;
20241;SDS011;10279;46.388;8.116;2022-07-30T15:54:25;0.82;;;0.80;;